createdAt,value
2023-02-13T00:02:27.268Z,100344.56
2023-02-13T00:07:29.078Z,100335.97
2023-02-13T00:12:38.571Z,100337.81
2023-02-13T00:17:40.570Z,100333.56
2023-02-13T00:22:42.567Z,100331.91
2023-02-13T00:27:44.791Z,100326.75
2023-02-13T00:32:46.812Z,100320.84
2023-02-13T00:37:48.572Z,100319.28
2023-02-13T00:42:50.419Z,100318.34
2023-02-13T00:47:52.453Z,100315.88
2023-02-13T00:52:56.161Z,100327.75
2023-02-13T00:57:57.995Z,100326.09
2023-02-13T01:03:00.281Z,100331.25
2023-02-13T01:08:02.612Z,100321.78
2023-02-13T01:13:04.932Z,100330.34
2023-02-13T01:18:09.929Z,100320.84
2023-02-13T01:23:12.919Z,100319.94
2023-02-13T01:28:14.880Z,100327.66
2023-02-13T01:33:20.100Z,100313.94
2023-02-13T01:38:22.071Z,100327.59
2023-02-13T01:43:25.153Z,100316.44
2023-02-13T01:48:27.961Z,100316.53
2023-02-13T01:54:02.476Z,100317.34
2023-02-13T01:59:12.306Z,100307.88
2023-02-13T02:04:19.988Z,100312.94
2023-02-13T02:09:27.705Z,100308.53
2023-02-13T02:14:29.845Z,100298.13
2023-02-13T02:19:44.893Z,100291.22
2023-02-13T02:25:04.657Z,100297.13
2023-02-13T02:30:39.374Z,100297.03
2023-02-13T02:35:51.835Z,100297.13
2023-02-13T02:41:40.219Z,100297.84
2023-02-13T02:47:14.908Z,100296.94
2023-02-13T02:52:26.829Z,100294.34
2023-02-13T02:57:54.420Z,100304.59
2023-02-13T03:03:14.970Z,100301.91
2023-02-13T03:08:41.523Z,100303.75
2023-02-13T03:13:47.163Z,100306.25
2023-02-13T03:19:14.339Z,100307.16
2023-02-13T03:24:50.908Z,100313.16
2023-02-13T03:30:45.385Z,100300.25
2023-02-13T03:36:12.572Z,100308.00
2023-02-13T03:41:22.535Z,100302.84
2023-02-13T03:46:27.329Z,100312.25
2023-02-13T03:51:41.762Z,100314.81
2023-02-13T03:57:04.147Z,100312.25
2023-02-13T04:02:21.170Z,100308.84
2023-02-13T04:07:32.209Z,100308.91
2023-02-13T04:13:03.711Z,100313.16
2023-02-13T04:18:10.832Z,100302.09
2023-02-13T04:23:14.605Z,100311.69
2023-02-13T04:28:19.600Z,100309.09
2023-02-13T04:33:21.428Z,100303.19
2023-02-13T04:38:29.293Z,100306.69
2023-02-13T04:43:31.184Z,100311.84
2023-02-13T04:48:32.950Z,100301.63
2023-02-13T04:53:34.767Z,100309.34
2023-02-13T04:58:36.646Z,100308.63
2023-02-13T05:03:38.455Z,100314.69
2023-02-13T05:08:40.332Z,100307.03
2023-02-13T05:13:42.538Z,100302.78
2023-02-13T05:18:46.502Z,100291.56
2023-02-13T05:23:48.326Z,100311.38
2023-02-13T05:29:08.605Z,100304.53
2023-02-13T05:34:10.441Z,100311.44
2023-02-13T05:39:12.462Z,100301.13
2023-02-13T05:44:15.282Z,100307.97
2023-02-13T05:49:17.096Z,100301.13
2023-02-13T05:54:19.600Z,100306.28
2023-02-13T05:59:23.928Z,100302.97
2023-02-13T06:04:26.207Z,100310.72
2023-02-13T06:09:32.488Z,100316.97
2023-02-13T06:14:34.885Z,100313.53
2023-02-13T06:19:36.612Z,100316.13
2023-02-13T06:24:38.393Z,100319.63
2023-02-13T06:29:40.162Z,100323.94
2023-02-13T06:34:42.061Z,100323.13
2023-02-13T06:39:43.998Z,100329.19
2023-02-13T06:44:46.022Z,100327.44
2023-02-13T06:49:48.350Z,100336.09
2023-02-13T06:54:50.141Z,100348.06
2023-02-13T06:59:51.888Z,100350.56
2023-02-13T07:04:53.668Z,100352.16
2023-02-13T07:09:55.412Z,100357.31
2023-02-13T07:14:57.194Z,100352.22
2023-02-13T07:19:59.245Z,100352.22
2023-02-13T07:25:01.735Z,100352.97
2023-02-13T07:30:04.209Z,100353.72
2023-02-13T07:35:06.502Z,100359.72
2023-02-13T07:40:09.385Z,100356.22
2023-02-13T07:45:12.245Z,100352.72
2023-02-13T07:50:14.273Z,100352.72
2023-02-13T07:55:16.325Z,100357.88
2023-02-13T08:00:22.449Z,100360.38
2023-02-13T08:05:24.389Z,100356.13
2023-02-13T08:10:44.881Z,100364.69
2023-02-13T08:15:47.629Z,100362.22
2023-02-13T08:20:49.481Z,100367.38
2023-02-13T08:26:16.374Z,100371.69
2023-02-13T08:31:21.584Z,100376.03
2023-02-13T08:36:24.993Z,100366.53
2023-02-13T08:41:27.144Z,100371.53
2023-02-13T08:46:29.118Z,100380.19
2023-02-13T08:51:30.950Z,100382.00
2023-02-13T08:56:33.194Z,100385.50
2023-02-13T09:01:46.988Z,100381.25
2023-02-13T09:06:49.110Z,100383.94
2023-02-13T09:11:52.643Z,100393.31
2023-02-13T09:16:57.971Z,100386.34
2023-02-13T09:22:00.056Z,100400.81
2023-02-13T09:27:02.110Z,100400.06
2023-02-13T09:32:06.415Z,100400.06
2023-02-13T09:37:08.530Z,100397.31
2023-02-13T09:42:33.676Z,100392.81
2023-02-13T09:47:40.108Z,100391.81
2023-02-13T09:52:45.815Z,100395.13
2023-02-13T09:58:16.563Z,100400.88
2023-02-13T10:03:53.574Z,100407.63
2023-02-13T10:09:04.421Z,100404.03
2023-02-13T10:14:28.175Z,100407.28
2023-02-13T10:19:49.492Z,100406.09
2023-02-13T10:25:11.156Z,100399.66
2023-02-13T10:30:23.977Z,100402.06
2023-02-13T10:35:30.920Z,100399.97
2023-02-13T10:40:39.188Z,100394.19
2023-02-13T10:45:47.061Z,100383.69
2023-02-13T10:51:29.036Z,100368.03
2023-02-13T10:56:54.327Z,100364.44
2023-02-13T11:02:14.195Z,100359.19
2023-02-13T11:07:19.782Z,100362.69
2023-02-13T11:12:33.330Z,100354.28
2023-02-13T11:17:39.968Z,100356.22
2023-02-13T11:22:43.269Z,100355.38
2023-02-13T11:27:46.519Z,100356.88
2023-02-13T11:33:04.284Z,100351.25
2023-02-13T11:38:20.978Z,100354.13
2023-02-13T11:43:35.573Z,100345.38
2023-02-13T11:48:37.534Z,100343.34
2023-02-13T11:53:40.257Z,100336.88
2023-02-13T11:58:43.313Z,100330.69
2023-02-13T12:04:02.531Z,100323.50
2023-02-13T12:09:04.562Z,100316.22
2023-02-13T12:14:13.044Z,100322.56
2023-02-13T12:19:21.624Z,100311.59
2023-02-13T12:24:46.505Z,100300.97
2023-02-13T12:29:54.189Z,100299.66
2023-02-13T12:35:07.931Z,100286.47
2023-02-13T12:40:27.044Z,100287.47
2023-02-13T12:45:37.668Z,100290.16
2023-02-13T12:51:03.511Z,100283.78
2023-02-13T12:56:25.043Z,100279.34
2023-02-13T13:01:57.379Z,100289.59
2023-02-13T13:07:15.086Z,100287.09
2023-02-13T13:12:31.700Z,100282.59
2023-02-13T13:17:50.838Z,100277.72
2023-02-13T13:22:53.952Z,100280.00
2023-02-13T13:28:01.959Z,100279.19
2023-02-13T13:33:10.082Z,100275.03
2023-02-13T13:38:30.256Z,100276.69
2023-02-13T13:43:54.353Z,100283.72
2023-02-13T13:49:23.669Z,100278.94
2023-02-13T13:54:35.165Z,100277.44
2023-02-13T13:59:37.936Z,100278.56
2023-02-13T14:04:43.716Z,100282.16
2023-02-13T14:09:46.375Z,100278.75
2023-02-13T14:14:48.399Z,100278.84
2023-02-13T14:19:53.336Z,100293.53
2023-02-13T14:24:59.125Z,100294.53
2023-02-13T14:30:02.303Z,100290.38
2023-02-13T14:35:20.983Z,100283.56
2023-02-13T14:40:22.805Z,100273.59
2023-02-13T14:45:29.665Z,100278.31
2023-02-13T14:50:46.510Z,100281.16
2023-02-13T14:55:55.888Z,100277.28
2023-02-13T15:01:06.773Z,100257.75
2023-02-13T15:06:20.004Z,100259.78
2023-02-13T15:11:43.424Z,100258.47
2023-02-13T15:16:49.671Z,100232.28
2023-02-13T15:22:01.042Z,100242.06
2023-02-13T15:27:06.648Z,100246.56
2023-02-13T15:32:20.503Z,100239.19
2023-02-13T15:37:29.983Z,100238.47
2023-02-13T15:42:32.689Z,100231.91
2023-02-13T15:47:36.896Z,100224.34
2023-02-13T15:52:39.654Z,100230.44
2023-02-13T15:57:44.064Z,100233.00
2023-02-13T16:02:47.935Z,100248.56
2023-02-13T16:07:53.670Z,100253.81
2023-02-13T16:12:58.383Z,100249.66
2023-02-13T16:18:01.373Z,100238.53
2023-02-13T16:23:18.298Z,100254.09
2023-02-13T16:28:24.058Z,100248.28
2023-02-13T16:33:33.258Z,100244.97
2023-02-13T16:38:45.670Z,100247.72
2023-02-13T16:43:52.025Z,100246.97
2023-02-13T16:48:57.037Z,100241.06
2023-02-13T16:54:16.772Z,100251.47
2023-02-13T16:59:43.452Z,100244.47
2023-02-13T17:05:08.384Z,100232.41
2023-02-13T17:10:27.474Z,100235.72
2023-02-13T17:15:32.335Z,100238.31
2023-02-13T17:20:35.883Z,100232.59
2023-02-13T17:25:38.383Z,100224.19
2023-02-13T17:30:41.512Z,100223.47
2023-02-13T17:35:43.542Z,100221.16
2023-02-13T17:40:46.166Z,100212.66
2023-02-13T17:45:50.200Z,100216.34
2023-02-13T17:50:52.568Z,100226.66
2023-02-13T17:55:54.447Z,100237.81
2023-02-13T18:00:56.640Z,100232.56
2023-02-13T18:05:58.934Z,100210.34
2023-02-13T18:11:00.966Z,100208.69
2023-02-13T18:16:08.808Z,100217.34
2023-02-13T18:21:12.605Z,100243.03
2023-02-13T18:26:15.505Z,100225.00
2023-02-13T18:31:17.659Z,100232.81
2023-02-13T18:36:19.656Z,100225.00
2023-02-13T18:41:21.930Z,100229.16
2023-02-13T18:46:24.239Z,100224.81
2023-02-13T18:51:26.737Z,100240.13
2023-02-13T18:56:28.813Z,100221.16
2023-02-13T19:01:30.769Z,100214.31
2023-02-13T19:06:33.943Z,100203.53
2023-02-13T19:11:38.668Z,100204.53
2023-02-13T19:16:41.169Z,100201.88
2023-02-13T19:21:43.117Z,100194.88
2023-02-13T19:26:45.114Z,100201.69
2023-02-13T19:31:47.128Z,100197.38
2023-02-13T19:36:49.011Z,100200.88
2023-02-13T19:41:51.101Z,100215.50
2023-02-13T19:46:53.103Z,100242.13
2023-02-13T19:51:55.258Z,100235.22
2023-02-13T19:57:01.641Z,100233.47
2023-02-13T20:02:03.564Z,100241.22
2023-02-13T20:07:06.354Z,100236.06
2023-02-13T20:12:08.122Z,100241.88
2023-02-13T20:17:09.945Z,100240.13
2023-02-13T20:22:16.821Z,100241.03
2023-02-13T20:27:18.660Z,100252.09
2023-02-13T20:32:21.354Z,100250.25
2023-02-13T20:37:25.794Z,100248.59
2023-02-13T20:42:27.835Z,100247.75
2023-02-13T20:47:29.622Z,100240.03
2023-02-13T20:52:34.605Z,100241.69
2023-02-13T20:57:37.049Z,100249.41
2023-02-13T21:02:39.076Z,100255.31
2023-02-13T21:07:41.257Z,100253.66
2023-02-13T21:12:43.692Z,100250.25
2023-02-13T21:17:46.190Z,100239.94
2023-02-13T21:22:48.093Z,100245.09
2023-02-13T21:27:50.186Z,100258.06
2023-02-13T21:32:51.924Z,100251.91
2023-02-13T21:37:55.027Z,100248.41
2023-02-13T21:42:56.768Z,100249.25
2023-02-13T21:47:58.612Z,100248.50
2023-02-13T21:53:00.535Z,100248.41
2023-02-13T21:58:02.336Z,100249.34
2023-02-13T22:03:04.210Z,100251.09
2023-02-13T22:08:12.158Z,100245.09
2023-02-13T22:13:13.895Z,100250.16
2023-02-13T22:18:15.744Z,100249.50
2023-02-13T22:23:17.596Z,100257.25
2023-02-13T22:28:19.358Z,100255.59
2023-02-13T22:33:21.639Z,100263.22
2023-02-13T22:38:23.434Z,100277.03
2023-02-13T22:43:32.562Z,100277.97
2023-02-13T22:48:38.538Z,100274.56
2023-02-13T22:53:40.690Z,100284.88
2023-02-13T22:58:42.428Z,100281.38
2023-02-13T23:03:44.848Z,100289.09
2023-02-13T23:08:49.272Z,100294.19
2023-02-13T23:13:51.033Z,100295.94
2023-02-13T23:18:57.500Z,100295.94
2023-02-13T23:23:59.329Z,100298.59
2023-02-13T23:29:01.160Z,100296.00
2023-02-13T23:34:03.479Z,100301.16
2023-02-13T23:39:05.353Z,100299.41
2023-02-13T23:44:07.258Z,100296.00
2023-02-13T23:49:09.159Z,100284.88
2023-02-13T23:54:14.990Z,100293.53
2023-02-13T23:59:18.705Z,100287.53
